Time;durP1;ratioP1;P1;durP2;ratioP2;P2;SDS_P1;SDS_P2;PMS_P1;PMS_P2;Temp;Humidity;BMP_temperature;BMP_pressure;BME280_temperature;BME280_humidity;BME280_pressure;Samples;Min_cycle;Max_cycle;Signal;HPM_P1;HPM_P2
2023/12/15 00:02:59;;;;;;;2.03;1.30;;;;;;;;;;20631808;28;20594;-75
2023/12/15 00:13:01;;;;;;;1.60;1.00;;;;;;;;;;20622010;28;20267;-76
2023/12/15 00:23:03;;;;;;;1.73;1.10;;;;;;;;;;20645273;28;20584;-75
2023/12/15 00:33:04;;;;;;;1.93;1.17;;;;;;;;;;20650482;28;20227;-75
2023/12/15 00:43:06;;;;;;;1.57;0.80;;;;;;;;;;20657108;28;20267;-75
2023/12/15 00:53:08;;;;;;;1.33;0.70;;;;;;;;;;20614756;28;20228;-75
2023/12/15 01:03:10;;;;;;;2.03;0.80;;;;;;;;;;20659394;28;20231;-75
2023/12/15 01:13:11;;;;;;;1.87;0.90;;;;;;;;;;20647862;28;20216;-75
2023/12/15 01:23:13;;;;;;;1.40;0.80;;;6.60;99.90;;;;;;20653003;28;20231;-75
2023/12/15 01:33:15;;;;;;;1.83;1.07;;;;;;;;;;20612019;28;20243;-75
2023/12/15 01:43:16;;;;;;;2.17;1.10;;;;;;;;;;20652236;28;20216;-75
2023/12/15 01:53:20;;;;;;;1.70;0.70;;;;;;;;;;20627945;28;20192;-75
2023/12/15 02:03:22;;;;;;;1.93;1.00;;;;;;;;;;20647311;28;20216;-75
2023/12/15 02:13:24;;;;;;;1.03;0.90;;;;;;;;;;20638255;28;20660;-75
2023/12/15 02:23:26;;;;;;;1.70;0.80;;;;;;;;;;20651759;28;20220;-75
2023/12/15 02:33:28;;;;;;;1.60;0.83;;;;;;;;;;20651457;28;20239;-75
2023/12/15 02:43:29;;;;;;;1.80;1.00;;;;;;;;;;20648182;28;20207;-75
2023/12/15 02:53:31;;;;;;;1.43;0.90;;;;;;;;;;20655563;28;20188;-75
2023/12/15 03:03:33;;;;;;;1.00;0.70;;;;;;;;;;20634687;22;20231;-73
2023/12/15 03:13:37;;;;;;;1.23;0.70;;;6.20;99.90;;;;;;20569356;28;20209;-73
2023/12/15 03:23:39;;;;;;;1.47;0.90;;;;;;;;;;20583199;28;20228;-73
2023/12/15 03:33:40;;;;;;;1.50;0.90;;;;;;;;;;20587982;28;20280;-73
2023/12/15 03:43:42;;;;;;;1.97;1.20;;;;;;;;;;20579520;28;20291;-73
2023/12/15 03:53:44;;;;;;;1.87;0.80;;;;;;;;;;20564183;28;20220;-73
2023/12/15 04:03:45;;;;;;;2.00;0.80;;;;;;;;;;20581386;28;20707;-73
2023/12/15 04:13:48;;;;;;;1.47;0.87;;;;;;;;;;20580670;28;20636;-74
2023/12/15 04:23:50;;;;;;;1.03;0.70;;;;;;;;;;20567247;28;20314;-73
2023/12/15 04:33:52;;;;;;;1.37;0.83;;;;;;;;;;20562002;28;20280;-73
2023/12/15 04:43:53;;;;;;;2.07;1.20;;;;;;;;;;20560584;28;20217;-73
2023/12/15 04:53:55;;;;;;;2.30;1.30;;;;;;;;;;20534380;28;20272;-73
2023/12/15 05:03:57;;;;;;;2.13;1.17;;;;;;;;;;20549470;28;20217;-73
2023/12/15 05:13:59;;;;;;;12.27;6.60;;;;;;;;;;20548465;28;20221;-72
2023/12/15 05:24:00;;;;;;;15.50;9.40;;;;;;;;;;20536579;28;20704;-73
2023/12/15 05:34:02;;;;;;;5.77;3.73;;;;;;;;;;20580696;28;20244;-73
2023/12/15 05:44:04;;;;;;;2.30;1.63;;;;;;;;;;20581478;28;20611;-73
2023/12/15 05:54:06;;;;;;;3.27;1.53;;;;;;;;;;20580930;28;20228;-73
2023/12/15 06:04:08;;;;;;;3.17;1.57;;;;;;;;;;20578315;28;20841;-73
2023/12/15 06:14:10;;;;;;;2.60;1.73;;;;;;;;;;20571624;28;20267;-73
2023/12/15 06:24:12;;;;;;;3.53;1.43;;;;;;;;;;20559408;28;20212;-73
2023/12/15 06:34:14;;;;;;;2.93;2.00;;;;;;;;;;20546312;28;20287;-73
2023/12/15 06:44:16;;;;;;;3.10;1.77;;;;;;;;;;20525872;28;20213;-73
2023/12/15 06:54:17;;;;;;;4.00;2.20;;;;;;;;;;20530220;28;20217;-73
2023/12/15 07:04:19;;;;;;;3.67;2.07;;;;;;;;;;20543785;28;20271;-73
2023/12/15 07:14:21;;;;;;;3.50;2.23;;;;;;;;;;20527779;28;20685;-73
2023/12/15 07:24:23;;;;;;;3.63;2.20;;;;;;;;;;20563888;28;20216;-73
2023/12/15 07:34:24;;;;;;;3.07;2.30;;;;;;;;;;20529973;28;20209;-73
2023/12/15 07:44:26;;;;;;;2.87;1.90;;;;;;;;;;20519418;28;20283;-73
2023/12/15 07:54:30;;;;;;;4.53;2.70;;;;;;;;;;20534224;28;20692;-73
2023/12/15 08:04:32;;;;;;;6.63;2.67;;;;;;;;;;20542831;28;20275;-73
2023/12/15 08:14:34;;;;;;;3.47;2.23;;;;;;;;;;20535904;28;20225;-73
2023/12/15 08:24:36;;;;;;;5.73;2.70;;;;;;;;;;20547347;28;20256;-72
2023/12/15 08:34:39;;;;;;;6.10;2.87;;;;;;;;;;20521907;28;20617;-76
2023/12/15 08:44:43;;;;;;;5.20;2.80;;;;;;;;;;20539692;28;20228;-76
2023/12/15 08:54:45;;;;;;;5.13;2.57;;;;;;;;;;20546337;28;20774;-75
2023/12/15 09:04:47;;;;;;;2.87;1.90;;;;;;;;;;20570279;28;20287;-75
2023/12/15 09:14:50;;;;;;;3.87;2.17;;;;;;;;;;20632782;23;20278;-78
2023/12/15 09:24:51;;;;;;;2.33;1.57;;;;;;;;;;20661856;28;20227;-79
2023/12/15 09:34:53;;;;;;;3.07;1.67;;;;;;;;;;20672460;28;20602;-78
2023/12/15 09:44:55;;;;;;;3.03;2.07;;;;;;;;;;20664805;28;20215;-79
2023/12/15 09:54:56;;;;;;;2.60;2.00;;;;;;;;;;20692902;28;20239;-79
2023/12/15 10:04:58;;;;;;;3.60;2.57;;;;;;;;;;20699580;28;20710;-78
2023/12/15 10:15:00;;;;;;;3.20;2.23;;;;;;;;;;20659839;28;20717;-79
2023/12/15 10:25:02;;;;;;;3.03;1.97;;;;;;;;;;20653190;28;20231;-77
2023/12/15 10:35:04;;;;;;;3.50;1.73;;;6.50;99.90;;;;;;20670310;28;20224;-76
2023/12/15 10:45:06;;;;;;;2.87;1.70;;;;;;;;;;20666077;28;20655;-77
2023/12/15 10:55:11;;;;;;;2.10;1.33;;;6.60;99.90;;;;;;20662165;28;20290;-77
2023/12/15 11:05:14;;;;;;;3.17;1.80;;;;;;;;;;20663114;28;20251;-78
2023/12/15 11:15:19;;;;;;;2.77;2.00;;;;;;;;;;20666034;28;20219;-78
2023/12/15 11:25:24;;;;;;;2.57;1.40;;;;;;;;;;20664572;28;20220;-76
2023/12/15 11:35:32;;;;;;;3.23;1.10;;;;;;;;;;20673809;28;20281;-76
2023/12/15 11:45:34;;;;;;;1.40;0.83;;;;;;;;;;20668327;28;20272;-77
2023/12/15 11:55:38;;;;;;;3.13;1.30;;;;;;;;;;20650287;28;20227;-77
2023/12/15 12:05:43;;;;;;;1.57;0.97;;;;;;;;;;20680723;28;20612;-78
2023/12/15 12:15:49;;;;;;;1.50;1.10;;;;;;;;;;20657193;28;20235;-77
2023/12/15 12:25:51;;;;;;;2.00;1.20;;;;;;;;;;20669323;28;20262;-77
2023/12/15 12:35:53;;;;;;;1.27;0.90;;;;;;;;;;20693798;28;20207;-78
2023/12/15 12:45:55;;;;;;;2.50;1.40;;;;;;;;;;20695530;28;20224;-78
2023/12/15 12:55:56;;;;;;;2.23;1.40;;;;;;;;;;20678013;28;20238;-77
2023/12/15 13:05:58;;;;;;;2.43;1.10;;;;;;;;;;20682660;28;20259;-77
2023/12/15 13:16:00;;;;;;;1.60;0.90;;;;;;;;;;20673924;28;20289;-77
2023/12/15 13:26:02;;;;;;;2.77;1.10;;;;;;;;;;20670171;28;20285;-78
2023/12/15 13:36:04;;;;;;;1.73;1.03;;;8.70;99.90;;;;;;20664596;28;20224;-77
2023/12/15 13:46:07;;;;;;;2.10;1.23;;;;;;;;;;20663771;28;20224;-78
2023/12/15 13:56:09;;;;;;;1.50;1.00;;;;;;;;;;20685875;28;20275;-78
2023/12/15 14:06:11;;;;;;;1.40;0.90;;;;;;;;;;20661814;28;20227;-80
2023/12/15 14:16:14;;;;;;;1.47;1.00;;;;;;;;;;20646986;28;20224;-78
2023/12/15 14:26:16;;;;;;;1.63;1.13;;;;;;;;;;20677123;28;20688;-78
2023/12/15 14:36:18;;;;;;;2.43;1.23;;;;;;;;;;20666694;28;20219;-78
2023/12/15 14:46:19;;;;;;;1.77;0.70;;;;;;;;;;20657355;28;20251;-79
2023/12/15 14:56:21;;;;;;;1.17;0.80;;;;;;;;;;20664852;28;20278;-78
2023/12/15 15:06:23;;;;;;;2.50;0.93;;;;;;;;;;20679842;28;20223;-78
2023/12/15 15:16:25;;;;;;;1.77;0.90;;;;;;;;;;20680227;22;20278;-83
2023/12/15 15:26:30;;;;;;;1.30;0.97;;;;;;;;;;20609249;28;20229;-80
2023/12/15 15:36:33;;;;;;;3.00;1.30;;;;;;;;;;20595626;28;20746;-83
2023/12/15 15:46:35;;;;;;;1.47;1.00;;;;;;;;;;20578367;28;20220;-83
2023/12/15 15:56:36;;;;;;;1.60;1.13;;;;;;;;;;20567325;28;20208;-83
2023/12/15 16:06:38;;;;;;;1.87;1.17;;;;;;;;;;20579379;28;20487;-81
2023/12/15 16:16:40;;;;;;;2.00;1.50;;;;;;;;;;20572536;28;20609;-82
2023/12/15 16:26:42;;;;;;;2.00;1.27;;;;;;;;;;20550878;28;20773;-82
2023/12/15 16:36:44;;;;;;;2.57;1.40;;;;;;;;;;20525956;28;20714;-81
2023/12/15 16:46:46;;;;;;;2.57;1.60;;;;;;;;;;20548119;28;20233;-81
2023/12/15 16:56:48;;;;;;;3.03;1.40;;;;;;;;;;20556243;28;20299;-81
2023/12/15 17:06:50;;;;;;;2.60;1.40;;;;;;;;;;20586230;28;20288;-82
2023/12/15 17:16:52;;;;;;;2.20;1.53;;;;;;;;;;20556154;28;20260;-81
2023/12/15 17:26:53;;;;;;;3.07;2.43;;;;;;;;;;20565966;28;20256;-81
2023/12/15 17:36:57;;;;;;;2.30;1.50;;;;;;;;;;20581193;28;20224;-81
2023/12/15 17:46:59;;;;;;;1.77;1.03;;;;;;;;;;20596577;28;20296;-81
2023/12/15 18:07:21;;;;;;;2.60;1.60;;;;;;;;;;20819760;28;20313;-73
2023/12/15 18:17:22;;;;;;;2.50;1.40;;;;;;;;;;20226833;28;20227;-73
2023/12/15 18:27:25;;;;;;;4.93;1.80;;;;;;;;;;19712840;30;20248;-73
2023/12/15 18:37:27;;;;;;;1.80;1.23;;;;;;;;;;19718942;30;20796;-72
2023/12/15 18:47:29;;;;;;;2.20;1.40;;;;;;;;;;19723893;30;20797;-73
2023/12/15 18:57:35;;;;;;;2.37;1.40;;;;;;;;;;19720347;30;20308;-73
2023/12/15 19:07:37;;;;;;;1.97;1.13;;;;;;;;;;19707376;30;20235;-73
2023/12/15 19:17:39;;;;;;;2.20;0.97;;;;;;;;;;19893361;29;1166411;-73
2023/12/15 19:27:41;;;;;;;1.30;0.80;;;;;;;;;;20340402;29;20298;-73
2023/12/15 19:37:43;;;;;;;2.63;1.40;;;;;;;;;;20335765;29;20222;-73
2023/12/15 19:47:45;;;;;;;1.23;0.80;;;;;;;;;;20386672;29;20218;-73
2023/12/15 19:57:48;;;;;;;1.33;0.73;;;;;;;;;;20349123;29;20295;-73
2023/12/15 20:07:50;;;;;;;1.17;0.90;;;;;;;;;;20350212;29;20284;-73
2023/12/15 20:17:51;;;;;;;1.77;1.00;;;;;;;;;;20261262;28;20720;-73
2023/12/15 20:27:53;;;;;;;2.07;1.43;;;;;;;;;;20296086;28;20308;-73
2023/12/15 20:37:55;;;;;;;2.33;1.30;;;;;;;;;;20393184;29;20681;-72
2023/12/15 20:47:57;;;;;;;3.00;1.50;;;8.10;99.90;;;;;;20400498;29;20401;-73
2023/12/15 21:09:41;;;;;;;3.37;1.97;;;;;;;;;;21183869;23;20607;-74
